createdAt,value
2022-12-12T00:01:34.868Z,12.13
2022-12-12T00:04:03.644Z,11.97
2022-12-12T00:06:32.333Z,12.63
2022-12-12T00:09:00.421Z,11.97
2022-12-12T00:11:29.069Z,13.70
2022-12-12T00:13:57.639Z,12.57
2022-12-12T00:16:26.620Z,11.33
2022-12-12T00:18:56.525Z,12.13
2022-12-12T00:21:27.145Z,12.37
2022-12-12T00:23:56.214Z,12.10
2022-12-12T00:26:27.383Z,12.03
2022-12-12T00:28:56.413Z,12.17
2022-12-12T00:31:24.652Z,12.40
2022-12-12T00:33:53.250Z,12.07
2022-12-12T00:36:26.808Z,12.73
2022-12-12T00:38:56.134Z,11.47
2022-12-12T00:41:24.617Z,12.33
2022-12-12T00:43:52.776Z,11.63
2022-12-12T00:46:25.467Z,12.37
2022-12-12T00:48:58.745Z,11.47
2022-12-12T00:51:31.250Z,11.77
2022-12-12T00:54:00.720Z,11.93
2022-12-12T00:56:30.865Z,11.53
2022-12-12T00:58:59.047Z,12.37
2022-12-12T01:01:30.542Z,12.53
2022-12-12T01:03:59.755Z,12.30
2022-12-12T01:06:29.604Z,11.60
2022-12-12T01:08:58.121Z,12.17
2022-12-12T01:11:26.544Z,11.70
2022-12-12T01:13:56.194Z,12.27
2022-12-12T01:16:25.791Z,11.87
2022-12-12T01:18:54.118Z,11.90
2022-12-12T01:21:22.797Z,12.97
2022-12-12T01:23:52.614Z,12.27
2022-12-12T01:26:25.551Z,10.97
2022-12-12T01:28:54.802Z,11.77
2022-12-12T01:31:23.360Z,12.40
2022-12-12T01:33:52.493Z,13.27
2022-12-12T01:36:23.474Z,12.73
2022-12-12T01:38:56.937Z,12.07
2022-12-12T01:41:26.225Z,12.37
2022-12-12T01:43:55.585Z,12.13
2022-12-12T01:46:39.551Z,11.53
2022-12-12T01:49:18.087Z,12.50
2022-12-12T01:51:48.878Z,13.03
2022-12-12T01:54:25.364Z,12.53
2022-12-12T01:56:57.598Z,11.73
2022-12-12T01:59:27.984Z,12.53
2022-12-12T02:01:56.870Z,12.37
2022-12-12T02:04:27.785Z,12.80
2022-12-12T02:06:58.216Z,12.43
2022-12-12T02:09:28.339Z,12.33
2022-12-12T02:11:58.566Z,12.47
2022-12-12T02:14:32.608Z,12.27
2022-12-12T02:17:35.508Z,12.67
2022-12-12T02:20:47.080Z,12.20
2022-12-12T02:23:54.045Z,11.77
2022-12-12T02:27:30.634Z,12.23
2022-12-12T02:30:12.493Z,12.90
2022-12-12T02:33:03.277Z,12.20
2022-12-12T02:35:48.460Z,12.57
2022-12-12T02:38:30.084Z,11.50
2022-12-12T02:41:14.749Z,12.37
2022-12-12T02:43:57.756Z,12.20
2022-12-12T02:46:34.469Z,12.43
2022-12-12T02:49:10.773Z,12.67
2022-12-12T02:51:41.506Z,13.20
2022-12-12T02:54:17.008Z,12.40
2022-12-12T02:56:53.459Z,13.33
2022-12-12T02:59:30.348Z,12.67
2022-12-12T03:02:39.000Z,12.23
2022-12-12T03:05:56.281Z,13.07
2022-12-12T03:08:47.811Z,13.27
2022-12-12T03:11:26.874Z,14.13
2022-12-12T03:14:04.272Z,12.80
2022-12-12T03:16:39.588Z,13.80
2022-12-12T03:19:17.754Z,13.23
2022-12-12T03:21:54.650Z,13.30
2022-12-12T03:24:34.758Z,13.13
2022-12-12T03:27:11.117Z,12.83
2022-12-12T03:29:44.907Z,14.20
2022-12-12T03:32:19.081Z,13.20
2022-12-12T03:34:54.392Z,12.90
2022-12-12T03:37:30.922Z,13.10
2022-12-12T03:40:06.608Z,13.67
2022-12-12T03:42:43.313Z,13.20
2022-12-12T03:45:19.249Z,13.53
2022-12-12T03:47:54.391Z,12.97
2022-12-12T03:50:27.025Z,14.33
2022-12-12T03:53:03.622Z,14.20
2022-12-12T03:55:41.995Z,13.50
2022-12-12T03:58:18.417Z,13.53
2022-12-12T04:00:51.558Z,14.00
2022-12-12T04:03:28.314Z,13.63
2022-12-12T04:06:23.299Z,13.77
2022-12-12T04:09:11.947Z,13.23
2022-12-12T04:12:03.723Z,13.53
2022-12-12T04:15:08.899Z,13.27
2022-12-12T04:17:45.622Z,14.27
2022-12-12T04:20:45.848Z,13.00
2022-12-12T04:23:28.248Z,12.77
2022-12-12T04:26:26.782Z,13.50
2022-12-12T04:29:07.222Z,13.67
2022-12-12T04:31:42.472Z,13.63
2022-12-12T04:34:18.953Z,12.77
2022-12-12T04:36:50.364Z,13.57
2022-12-12T04:39:22.706Z,13.83
2022-12-12T04:41:55.614Z,13.50
2022-12-12T04:44:28.282Z,13.57
2022-12-12T04:46:59.148Z,14.07
2022-12-12T04:49:31.666Z,14.13
2022-12-12T04:52:06.880Z,13.20
2022-12-12T04:54:45.419Z,12.83
2022-12-12T04:57:22.340Z,13.17
2022-12-12T04:59:51.252Z,13.90
2022-12-12T05:02:31.645Z,12.53
2022-12-12T05:05:07.960Z,13.53
2022-12-12T05:07:40.632Z,12.73
2022-12-12T05:10:14.246Z,12.40
2022-12-12T05:12:47.375Z,12.33
2022-12-12T05:15:17.424Z,12.43
2022-12-12T05:17:49.559Z,11.87
2022-12-12T05:20:17.742Z,12.60
2022-12-12T05:22:45.846Z,12.33
2022-12-12T05:25:15.280Z,11.77
2022-12-12T05:27:44.960Z,11.90
2022-12-12T05:30:14.077Z,12.60
2022-12-12T05:32:42.332Z,12.33
2022-12-12T05:35:11.836Z,13.10
2022-12-12T05:37:40.330Z,12.03
2022-12-12T05:40:10.582Z,12.03
2022-12-12T05:42:38.711Z,12.33
2022-12-12T05:45:11.560Z,12.37
2022-12-12T05:47:40.079Z,11.77
2022-12-12T05:50:09.676Z,11.47
2022-12-12T05:52:38.233Z,12.33
2022-12-12T05:55:07.693Z,11.87
2022-12-12T05:57:35.785Z,11.33
2022-12-12T06:00:04.998Z,11.87
2022-12-12T06:02:34.522Z,11.67
2022-12-12T06:05:02.771Z,12.17
2022-12-12T06:07:30.901Z,11.70
2022-12-12T06:09:59.079Z,11.43
2022-12-12T06:12:27.218Z,12.23
2022-12-12T06:14:55.304Z,12.33
2022-12-12T06:17:27.125Z,12.00
2022-12-12T06:19:59.182Z,11.77
2022-12-12T06:22:27.271Z,11.33
2022-12-12T06:24:55.411Z,11.17
2022-12-12T06:27:23.630Z,10.00
2022-12-12T06:29:51.751Z,11.23
2022-12-12T06:32:20.004Z,12.27
2022-12-12T06:34:48.084Z,10.17
2022-12-12T06:37:17.660Z,11.67
2022-12-12T06:39:46.865Z,10.73
2022-12-12T06:42:14.997Z,11.87
2022-12-12T06:44:43.165Z,11.73
2022-12-12T06:47:11.308Z,11.70
2022-12-12T06:49:39.731Z,11.57
2022-12-12T06:52:07.942Z,11.37
2022-12-12T06:54:37.897Z,11.50
2022-12-12T06:57:06.144Z,11.70
2022-12-12T06:59:34.491Z,11.27
2022-12-12T07:02:02.688Z,12.90
2022-12-12T07:04:31.039Z,11.97
2022-12-12T07:06:59.328Z,11.37
2022-12-12T07:09:28.289Z,12.77
2022-12-12T07:11:57.773Z,12.20
2022-12-12T07:14:26.011Z,12.10
2022-12-12T07:16:54.176Z,12.27
2022-12-12T07:19:23.081Z,12.83
2022-12-12T07:21:51.306Z,12.63
2022-12-12T07:24:19.511Z,13.60
2022-12-12T07:26:47.631Z,13.77
2022-12-12T07:29:17.162Z,14.23
2022-12-12T07:31:45.318Z,13.30
2022-12-12T07:34:13.384Z,14.10
2022-12-12T07:36:42.224Z,12.93
2022-12-12T07:39:10.391Z,14.03
2022-12-12T07:41:40.957Z,12.97
2022-12-12T07:44:09.235Z,14.43
2022-12-12T07:46:38.823Z,13.40
2022-12-12T07:49:06.941Z,14.67
2022-12-12T07:51:35.198Z,13.57
2022-12-12T07:54:03.335Z,13.90
2022-12-12T07:56:31.528Z,14.97
2022-12-12T07:58:59.602Z,14.03
2022-12-12T08:01:29.731Z,13.60
2022-12-12T08:03:59.261Z,13.80
2022-12-12T08:06:27.424Z,14.63
2022-12-12T08:08:55.582Z,14.50
2022-12-12T08:11:26.234Z,13.80
2022-12-12T08:13:55.056Z,14.57
2022-12-12T08:16:26.303Z,15.37
2022-12-12T08:18:55.542Z,14.90
2022-12-12T08:21:26.697Z,15.73
2022-12-12T08:23:57.908Z,15.10
2022-12-12T08:26:27.055Z,14.73
2022-12-12T08:28:56.154Z,14.47
2022-12-12T08:31:25.621Z,15.57
2022-12-12T08:33:54.109Z,14.40
2022-12-12T08:36:26.919Z,13.73
2022-12-12T08:38:55.234Z,14.63
2022-12-12T08:41:23.693Z,14.47
2022-12-12T08:43:52.172Z,13.63
2022-12-12T08:46:21.925Z,13.73
2022-12-12T08:48:50.356Z,14.10
2022-12-12T08:51:19.890Z,15.37
2022-12-12T08:53:51.859Z,14.50
2022-12-12T08:56:21.874Z,14.87
2022-12-12T08:58:51.639Z,14.17
2022-12-12T09:01:22.433Z,15.07
2022-12-12T09:03:52.032Z,14.23
2022-12-12T09:06:21.029Z,14.13
2022-12-12T09:08:51.183Z,14.70
2022-12-12T09:11:20.482Z,14.27
2022-12-12T09:13:48.622Z,14.90
2022-12-12T09:16:19.309Z,14.47
2022-12-12T09:18:49.313Z,13.83
2022-12-12T09:21:19.083Z,13.37
2022-12-12T09:23:47.213Z,14.03
2022-12-12T09:26:17.834Z,13.60
2022-12-12T09:28:46.103Z,14.27
2022-12-12T09:31:14.824Z,14.00
2022-12-12T09:33:43.306Z,12.60
2022-12-12T09:36:13.682Z,13.70
2022-12-12T09:38:42.730Z,12.90
2022-12-12T09:41:19.488Z,11.93
2022-12-12T09:43:58.857Z,12.60
2022-12-12T09:46:37.496Z,12.13
2022-12-12T09:49:16.540Z,12.47
2022-12-12T09:51:48.946Z,12.53
2022-12-12T09:54:21.550Z,12.33
2022-12-12T09:57:13.569Z,13.23
2022-12-12T09:59:52.492Z,11.73
2022-12-12T10:02:47.424Z,12.33
2022-12-12T10:05:30.958Z,11.47
2022-12-12T10:08:14.806Z,10.87
2022-12-12T10:10:46.964Z,11.50
2022-12-12T10:13:22.703Z,11.93
2022-12-12T10:15:55.720Z,11.23
2022-12-12T10:18:30.858Z,12.03
2022-12-12T10:21:05.183Z,11.77
2022-12-12T10:23:41.759Z,11.37
2022-12-12T10:26:17.982Z,11.70
2022-12-12T10:28:51.469Z,11.40
2022-12-12T10:31:35.028Z,12.00
2022-12-12T10:34:26.181Z,11.30
2022-12-12T10:37:12.209Z,11.83
2022-12-12T10:39:59.264Z,11.33
2022-12-12T10:42:36.935Z,10.40
2022-12-12T10:45:27.432Z,10.83
2022-12-12T10:47:55.679Z,11.27
2022-12-12T10:50:32.706Z,10.80
2022-12-12T10:53:02.219Z,11.03
2022-12-12T10:55:41.468Z,11.30
2022-12-12T10:58:09.569Z,10.97
2022-12-12T11:00:41.848Z,10.27
2022-12-12T11:03:26.854Z,10.13
2022-12-12T11:05:57.022Z,10.67
2022-12-12T11:08:30.496Z,11.23
2022-12-12T11:11:07.907Z,11.50
2022-12-12T11:13:51.160Z,11.27
2022-12-12T11:16:25.742Z,11.30
2022-12-12T11:19:08.198Z,11.03
2022-12-12T11:21:39.460Z,11.73
2022-12-12T11:24:14.789Z,11.37
2022-12-12T11:26:48.719Z,11.90
2022-12-12T11:29:35.237Z,11.87
2022-12-12T11:32:05.999Z,11.33
2022-12-12T11:34:39.879Z,12.30
2022-12-12T11:37:15.910Z,11.17
2022-12-12T11:39:47.947Z,12.43
2022-12-12T11:42:25.980Z,12.30
2022-12-12T11:45:05.294Z,11.60
2022-12-12T11:47:42.842Z,12.33
2022-12-12T11:50:24.107Z,12.43
2022-12-12T11:52:56.041Z,12.93
2022-12-12T11:55:40.611Z,13.13
2022-12-12T11:58:18.429Z,12.53
2022-12-12T12:00:57.896Z,13.23
2022-12-12T12:03:54.961Z,12.80
2022-12-12T12:06:42.020Z,11.87
2022-12-12T12:09:27.530Z,12.50
2022-12-12T12:12:07.278Z,12.23
2022-12-12T12:15:04.481Z,12.57
2022-12-12T12:17:55.304Z,12.70
2022-12-12T12:20:44.375Z,12.47
2022-12-12T12:23:37.663Z,12.30
2022-12-12T12:26:17.376Z,13.03
2022-12-12T12:29:24.994Z,13.10
2022-12-12T12:32:10.774Z,12.67
2022-12-12T12:34:59.702Z,12.20
2022-12-12T12:37:47.770Z,13.37
2022-12-12T12:40:36.627Z,12.60
2022-12-12T12:43:28.953Z,13.33
2022-12-12T12:46:06.614Z,12.97
2022-12-12T12:48:40.361Z,12.00
2022-12-12T12:51:20.062Z,12.27
2022-12-12T12:54:00.953Z,13.23
2022-12-12T12:56:33.442Z,12.47
2022-12-12T12:59:07.313Z,11.83
2022-12-12T13:01:42.233Z,12.50
2022-12-12T13:04:21.681Z,12.87
2022-12-12T13:06:59.564Z,12.43
2022-12-12T13:09:39.251Z,13.03
2022-12-12T13:12:19.412Z,12.77
2022-12-12T13:14:53.722Z,13.73
2022-12-12T13:17:30.089Z,12.53
2022-12-12T13:19:59.660Z,12.40
2022-12-12T13:22:48.095Z,12.77
2022-12-12T13:25:28.685Z,12.90
2022-12-12T13:28:02.993Z,13.03
2022-12-12T13:30:48.664Z,12.80
2022-12-12T13:33:40.515Z,12.70
2022-12-12T13:36:19.645Z,13.13
2022-12-12T13:38:55.801Z,13.13
2022-12-12T13:41:25.602Z,14.33
2022-12-12T13:43:59.681Z,13.73
2022-12-12T13:46:42.223Z,14.93
2022-12-12T13:49:46.272Z,14.30
2022-12-12T13:52:30.431Z,13.80
2022-12-12T13:55:23.350Z,14.20
2022-12-12T13:58:35.435Z,14.10
2022-12-12T14:01:34.335Z,14.23
2022-12-12T14:04:03.786Z,14.77
2022-12-12T14:06:32.808Z,13.93
2022-12-12T14:09:01.374Z,14.03
2022-12-12T14:11:37.007Z,14.10
2022-12-12T14:14:22.840Z,13.63
2022-12-12T14:16:57.326Z,14.50
2022-12-12T14:19:33.779Z,13.63
2022-12-12T14:22:02.168Z,12.60
2022-12-12T14:25:18.823Z,13.60
2022-12-12T14:28:21.156Z,13.77
2022-12-12T14:31:15.217Z,12.93
2022-12-12T14:34:15.284Z,14.30
2022-12-12T14:37:51.371Z,13.73
2022-12-12T14:40:25.007Z,13.67
2022-12-12T14:43:19.678Z,13.33
2022-12-12T14:46:00.321Z,14.03
2022-12-12T14:48:30.599Z,13.10
2022-12-12T14:51:10.222Z,14.33
2022-12-12T14:53:48.595Z,14.90
2022-12-12T14:56:19.873Z,16.13
2022-12-12T14:58:58.845Z,13.70
2022-12-12T15:01:36.326Z,13.90
2022-12-12T15:04:09.525Z,13.50
2022-12-12T15:06:42.313Z,14.20
2022-12-12T15:09:36.549Z,14.50
2022-12-12T15:12:16.645Z,14.90
2022-12-12T15:14:56.507Z,14.27
2022-12-12T15:17:31.073Z,15.27
2022-12-12T15:20:02.874Z,14.77
2022-12-12T15:22:34.911Z,14.83
2022-12-12T15:25:15.655Z,14.30
2022-12-12T15:27:53.836Z,14.73
2022-12-12T15:30:32.569Z,13.63
2022-12-12T15:33:03.809Z,14.43
2022-12-12T15:35:33.481Z,14.87
2022-12-12T15:38:05.576Z,15.23
2022-12-12T15:40:35.785Z,14.67
2022-12-12T15:43:08.340Z,13.80
2022-12-12T15:45:40.100Z,14.17
2022-12-12T15:48:16.769Z,13.37
2022-12-12T15:50:58.781Z,15.03
2022-12-12T15:53:31.363Z,14.60
2022-12-12T15:56:04.107Z,14.17
2022-12-12T15:58:37.966Z,14.00
2022-12-12T16:01:20.677Z,12.77
2022-12-12T16:04:00.879Z,13.43
2022-12-12T16:06:31.373Z,13.27
2022-12-12T16:09:16.927Z,13.93
2022-12-12T16:11:47.031Z,13.50
2022-12-12T16:14:39.570Z,13.77
2022-12-12T16:17:14.134Z,14.00
2022-12-12T16:19:48.421Z,12.80
2022-12-12T16:22:34.832Z,12.97
2022-12-12T16:25:19.197Z,14.03
2022-12-12T16:27:52.921Z,14.20
2022-12-12T16:30:21.026Z,14.80
2022-12-12T16:32:49.155Z,13.93
2022-12-12T16:35:21.697Z,14.70
2022-12-12T16:37:51.228Z,13.77
2022-12-12T16:40:21.343Z,14.03
2022-12-12T16:42:57.013Z,13.60
2022-12-12T16:45:25.135Z,13.57
2022-12-12T16:47:53.330Z,13.80
2022-12-12T16:50:22.999Z,14.13
2022-12-12T16:52:51.020Z,14.37
2022-12-12T16:55:24.562Z,14.90
2022-12-12T16:57:52.783Z,14.37
2022-12-12T17:00:21.201Z,13.53
2022-12-12T17:02:49.268Z,12.93
2022-12-12T17:05:23.766Z,14.53
2022-12-12T17:07:53.725Z,13.00
2022-12-12T17:10:24.483Z,13.23
2022-12-12T17:12:54.090Z,13.40
2022-12-12T17:15:25.232Z,12.73
2022-12-12T17:17:53.434Z,13.67
2022-12-12T17:20:23.701Z,13.40
2022-12-12T17:22:52.038Z,14.10
2022-12-12T17:25:22.647Z,13.07
2022-12-12T17:27:51.679Z,12.70
2022-12-12T17:30:21.977Z,12.00
2022-12-12T17:35:37.696Z,12.90
2022-12-12T17:38:09.176Z,12.03
2022-12-12T17:40:43.405Z,11.00
2022-12-12T17:43:11.657Z,13.17
2022-12-12T17:45:39.675Z,13.17
2022-12-12T17:48:07.787Z,13.17
2022-12-12T17:50:41.507Z,13.50
2022-12-12T17:53:10.043Z,13.30
2022-12-12T17:55:53.122Z,12.57
2022-12-12T17:58:29.457Z,11.50
2022-12-12T18:00:57.940Z,12.37
2022-12-12T18:03:26.003Z,11.87
2022-12-12T18:05:55.404Z,11.23
2022-12-12T18:08:23.495Z,13.93
2022-12-12T18:10:51.613Z,13.73
2022-12-12T18:13:19.676Z,14.27
2022-12-12T18:15:54.934Z,14.47
2022-12-12T18:18:23.433Z,14.07
2022-12-12T18:20:51.489Z,14.57
2022-12-12T18:23:21.460Z,13.83
2022-12-12T18:25:49.493Z,12.87
2022-12-12T18:28:17.578Z,14.00
2022-12-12T18:30:49.113Z,13.30
2022-12-12T18:33:17.184Z,13.33
2022-12-12T18:35:45.455Z,12.43
2022-12-12T18:38:13.559Z,13.23
2022-12-12T18:40:43.023Z,13.67
2022-12-12T18:43:11.105Z,12.27
2022-12-12T18:45:39.458Z,14.00
2022-12-12T18:48:07.545Z,13.37
2022-12-12T18:50:35.615Z,13.37
2022-12-12T18:53:03.732Z,14.53
2022-12-12T18:55:31.786Z,14.67
2022-12-12T18:58:01.363Z,13.90
2022-12-12T19:00:29.414Z,14.67
2022-12-12T19:02:57.470Z,15.80
2022-12-12T19:05:26.098Z,13.77
2022-12-12T19:07:54.182Z,14.43
2022-12-12T19:10:22.214Z,14.07
2022-12-12T19:12:50.319Z,14.67
2022-12-12T19:15:19.858Z,13.80
2022-12-12T19:17:47.962Z,13.47
2022-12-12T19:20:16.350Z,14.53
2022-12-12T19:22:46.275Z,14.13
2022-12-12T19:25:16.300Z,15.13
2022-12-12T19:27:45.017Z,15.40
2022-12-12T19:30:16.414Z,15.10
2022-12-12T19:32:48.799Z,16.13
2022-12-12T19:35:17.165Z,15.77
2022-12-12T19:37:45.250Z,16.07
2022-12-12T19:40:14.333Z,14.87
2022-12-12T19:42:42.718Z,15.40
2022-12-12T19:45:11.576Z,14.53
2022-12-12T19:47:39.605Z,14.27
2022-12-12T19:50:10.318Z,13.63
2022-12-12T19:52:38.552Z,14.30
2022-12-12T19:55:08.043Z,13.93
2022-12-12T19:57:36.146Z,13.43
2022-12-12T20:00:05.686Z,12.93
2022-12-12T20:02:33.936Z,13.10
2022-12-12T20:05:01.967Z,13.67
2022-12-12T20:07:31.377Z,13.40
2022-12-12T20:09:59.436Z,13.57
2022-12-12T20:12:27.481Z,14.03
2022-12-12T20:14:55.544Z,13.23
2022-12-12T20:17:23.868Z,13.20
2022-12-12T20:19:51.910Z,12.50
2022-12-12T20:22:19.974Z,12.93
2022-12-12T20:24:49.435Z,13.57
2022-12-12T20:27:17.626Z,12.77
2022-12-12T20:29:45.647Z,13.43
2022-12-12T20:32:14.142Z,13.07
2022-12-12T20:34:42.183Z,12.97
2022-12-12T20:37:12.146Z,12.70
2022-12-12T20:39:42.445Z,12.63
2022-12-12T20:42:12.184Z,12.93
2022-12-12T20:44:40.187Z,12.40
2022-12-12T20:47:14.071Z,13.10
2022-12-12T20:49:43.355Z,13.33
2022-12-12T20:52:11.421Z,12.57
2022-12-12T20:54:39.515Z,12.73
2022-12-12T20:57:07.637Z,11.90
2022-12-12T20:59:37.088Z,11.90
2022-12-12T21:02:05.229Z,12.43
2022-12-12T21:04:33.301Z,12.00
2022-12-12T21:07:01.395Z,11.93
2022-12-12T21:09:29.603Z,13.87
2022-12-12T21:11:58.927Z,12.53
2022-12-12T21:14:30.671Z,12.40
2022-12-12T21:17:00.197Z,11.97
2022-12-12T21:19:28.393Z,11.77
2022-12-12T21:21:56.496Z,9.83
2022-12-12T21:24:24.547Z,9.20
2022-12-12T21:26:52.708Z,7.90
2022-12-12T21:29:20.903Z,7.53
2022-12-12T21:31:51.964Z,7.60
2022-12-12T21:34:23.911Z,7.47
2022-12-12T21:36:53.676Z,8.43
2022-12-12T21:39:23.975Z,8.07
2022-12-12T21:41:52.188Z,8.43
2022-12-12T21:44:21.147Z,8.63
2022-12-12T21:46:49.594Z,8.90
2022-12-12T21:49:26.282Z,9.67
2022-12-12T21:51:58.913Z,10.80
2022-12-12T21:54:29.708Z,10.50
2022-12-12T21:56:59.022Z,11.10
2022-12-12T21:59:27.723Z,12.10
2022-12-12T22:01:58.153Z,11.97
2022-12-12T22:04:27.046Z,12.50
2022-12-12T22:06:57.974Z,12.43
2022-12-12T22:09:26.327Z,13.83
2022-12-12T22:12:03.481Z,13.83
2022-12-12T22:14:34.302Z,13.73
2022-12-12T22:17:02.981Z,13.33
2022-12-12T22:19:31.452Z,13.03
2022-12-12T22:22:00.860Z,13.63
2022-12-12T22:24:28.923Z,14.40
2022-12-12T22:26:56.944Z,14.63
2022-12-12T22:29:24.971Z,15.10
2022-12-12T22:31:53.325Z,14.27
2022-12-12T22:34:24.203Z,13.67
2022-12-12T22:36:53.920Z,13.33
2022-12-12T22:39:25.532Z,13.37
2022-12-12T22:41:54.256Z,14.23
2022-12-12T22:44:24.594Z,14.40
2022-12-12T22:46:55.127Z,14.00
2022-12-12T22:49:26.530Z,14.57
2022-12-12T22:51:56.199Z,15.53
2022-12-12T22:54:26.891Z,14.17
2022-12-12T22:56:55.159Z,14.43
2022-12-12T22:59:23.300Z,14.43
2022-12-12T23:01:51.415Z,14.57
2022-12-12T23:04:19.694Z,16.67
2022-12-12T23:06:47.876Z,15.77
2022-12-12T23:09:18.529Z,17.37
2022-12-12T23:11:48.178Z,15.93
2022-12-12T23:14:19.624Z,17.10
2022-12-12T23:16:48.524Z,16.97
2022-12-12T23:19:19.859Z,17.50
2022-12-12T23:21:48.504Z,17.90
2022-12-12T23:24:16.951Z,18.13
2022-12-12T23:26:46.817Z,18.37
2022-12-12T23:29:16.865Z,16.97
2022-12-12T23:31:45.661Z,17.03
2022-12-12T23:34:20.700Z,16.30
2022-12-12T23:36:49.420Z,16.03
2022-12-12T23:39:19.769Z,17.47
2022-12-12T23:41:50.054Z,16.13
2022-12-12T23:44:21.312Z,16.33
2022-12-12T23:46:50.323Z,16.03
2022-12-12T23:49:21.456Z,15.93
2022-12-12T23:51:52.295Z,15.93
2022-12-12T23:54:23.263Z,14.77
2022-12-12T23:56:53.308Z,16.60
2022-12-12T23:59:23.025Z,15.60
